createdAt,value
2018-08-04T00:02:18.821Z,99.90
2018-08-04T00:04:47.000Z,99.90
2018-08-04T00:07:15.246Z,99.90
2018-08-04T00:09:43.428Z,99.90
2018-08-04T00:12:12.116Z,99.90
2018-08-04T00:14:40.275Z,99.90
2018-08-04T00:17:08.448Z,99.90
2018-08-04T00:19:36.641Z,99.90
2018-08-04T00:22:04.853Z,99.90
2018-08-04T00:24:33.045Z,99.90
2018-08-04T00:27:01.221Z,99.90
2018-08-04T00:29:29.414Z,99.90
2018-08-04T00:31:57.612Z,99.90
2018-08-04T00:34:25.776Z,99.90
2018-08-04T00:36:54.100Z,99.90
2018-08-04T00:39:22.267Z,99.90
2018-08-04T00:41:50.491Z,99.90
2018-08-04T00:44:18.670Z,99.90
2018-08-04T00:46:46.844Z,99.90
2018-08-04T00:49:15.115Z,99.90
2018-08-04T00:51:43.314Z,99.90
2018-08-04T00:54:11.507Z,99.90
2018-08-04T00:56:39.703Z,99.90
2018-08-04T00:59:07.958Z,99.90
2018-08-04T01:01:36.137Z,99.90
2018-08-04T01:04:04.343Z,99.90
2018-08-04T01:06:32.535Z,99.90
2018-08-04T01:09:00.723Z,99.90
2018-08-04T01:11:28.941Z,99.90
2018-08-04T01:13:57.123Z,99.90
2018-08-04T01:16:25.457Z,99.90
2018-08-04T01:18:53.744Z,99.90
2018-08-04T01:21:21.964Z,99.90
2018-08-04T01:23:50.187Z,99.90
2018-08-04T01:26:18.411Z,99.90
2018-08-04T01:28:46.588Z,99.90
2018-08-04T01:31:14.806Z,99.90
2018-08-04T01:33:42.973Z,99.90
2018-08-04T01:36:11.162Z,99.90
2018-08-04T01:38:39.339Z,99.90
2018-08-04T01:41:07.543Z,99.90
2018-08-04T01:43:35.714Z,99.90
2018-08-04T01:46:03.893Z,99.90
2018-08-04T01:48:32.138Z,99.90
2018-08-04T01:51:00.673Z,99.90
2018-08-04T01:53:28.839Z,99.90
2018-08-04T01:55:57.032Z,99.90
2018-08-04T01:58:25.211Z,99.90
2018-08-04T02:00:53.423Z,99.90
2018-08-04T02:03:21.620Z,99.90
2018-08-04T02:05:49.875Z,99.90
2018-08-04T02:08:18.048Z,99.90
2018-08-04T02:10:46.240Z,99.90
2018-08-04T02:13:14.491Z,99.90
2018-08-04T02:15:42.681Z,99.90
2018-08-04T02:18:11.004Z,99.90
2018-08-04T02:20:39.208Z,99.90
2018-08-04T02:23:07.451Z,99.90
2018-08-04T02:25:35.671Z,99.90
2018-08-04T02:28:03.842Z,99.90
2018-08-04T02:30:32.072Z,99.90
2018-08-04T02:33:00.303Z,99.90
2018-08-04T02:35:28.500Z,99.90
2018-08-04T02:37:56.669Z,99.90
2018-08-04T02:40:24.856Z,99.90
2018-08-04T02:42:53.072Z,99.90
2018-08-04T02:45:21.312Z,99.90
2018-08-04T02:47:49.498Z,99.90
2018-08-04T02:50:17.680Z,99.90
2018-08-04T02:52:45.854Z,99.90
2018-08-04T02:55:14.056Z,99.90
2018-08-04T02:57:42.239Z,99.90
2018-08-04T03:00:10.467Z,99.90
2018-08-04T03:02:38.659Z,99.90
2018-08-04T03:05:07.383Z,99.90
2018-08-04T03:07:35.579Z,99.90
2018-08-04T03:10:03.874Z,99.90
2018-08-04T03:12:32.062Z,99.90
2018-08-04T03:15:00.251Z,99.90
2018-08-04T03:17:28.449Z,99.90
2018-08-04T03:19:56.635Z,99.90
2018-08-04T03:22:24.794Z,99.90
2018-08-04T03:24:53.055Z,99.90
2018-08-04T03:27:21.236Z,99.90
2018-08-04T03:29:49.427Z,99.90
2018-08-04T03:32:17.623Z,99.90
2018-08-04T03:34:45.809Z,99.90
2018-08-04T03:37:14.004Z,99.90
2018-08-04T03:39:42.249Z,99.90
2018-08-04T03:42:10.487Z,99.90
2018-08-04T03:44:38.666Z,99.90
2018-08-04T03:47:06.916Z,99.90
2018-08-04T03:49:35.124Z,99.90
2018-08-04T03:52:03.491Z,99.90
2018-08-04T03:54:31.696Z,99.90
2018-08-04T03:56:59.878Z,99.90
2018-08-04T03:59:28.072Z,99.90
2018-08-04T04:01:56.267Z,99.90
2018-08-04T04:04:24.470Z,99.90
2018-08-04T04:06:52.964Z,99.90
2018-08-04T04:09:21.185Z,99.90
2018-08-04T04:11:49.353Z,99.90
2018-08-04T04:14:17.527Z,99.90
2018-08-04T04:16:45.725Z,99.90
2018-08-04T04:19:13.899Z,99.90
2018-08-04T04:21:42.174Z,99.90
2018-08-04T04:24:10.348Z,99.90
2018-08-04T04:26:38.827Z,99.90
2018-08-04T04:29:06.995Z,99.90
2018-08-04T04:31:35.170Z,99.90
2018-08-04T04:34:03.347Z,99.90
2018-08-04T04:36:31.536Z,99.90
2018-08-04T04:38:59.748Z,99.90
2018-08-04T04:41:28.370Z,99.90
2018-08-04T04:43:56.828Z,99.90
2018-08-04T04:46:25.318Z,99.90
2018-08-04T04:48:53.511Z,99.90
2018-08-04T04:51:21.703Z,99.90
2018-08-04T04:53:49.898Z,99.90
2018-08-04T04:56:18.096Z,99.90
2018-08-04T04:58:46.280Z,99.90
2018-08-04T05:01:14.502Z,99.90
2018-08-04T05:03:42.690Z,99.90
2018-08-04T05:06:10.882Z,99.90
2018-08-04T05:08:39.127Z,99.90
2018-08-04T05:11:07.306Z,99.90
2018-08-04T05:13:35.486Z,99.90
2018-08-04T05:16:03.671Z,99.90
2018-08-04T05:18:31.871Z,99.90
2018-08-04T05:21:00.064Z,99.90
2018-08-04T05:23:28.251Z,99.90
2018-08-04T05:25:56.452Z,99.90
2018-08-04T05:28:24.642Z,99.90
2018-08-04T05:30:53.128Z,99.90
2018-08-04T05:33:21.470Z,99.90
2018-08-04T05:35:49.687Z,99.90
2018-08-04T05:38:18.322Z,99.90
2018-08-04T05:40:46.543Z,99.90
2018-08-04T05:43:14.842Z,99.90
2018-08-04T05:45:42.999Z,99.90
2018-08-04T05:48:11.198Z,99.90
2018-08-04T05:50:39.413Z,99.90
2018-08-04T05:53:07.604Z,99.90
2018-08-04T05:55:36.074Z,99.90
2018-08-04T05:58:04.317Z,99.90
2018-08-04T06:00:32.540Z,99.90
2018-08-04T06:03:00.928Z,99.90
2018-08-04T06:05:29.131Z,99.90
2018-08-04T06:07:57.532Z,99.90
2018-08-04T06:10:25.902Z,99.90
2018-08-04T06:12:54.183Z,99.90
2018-08-04T06:15:22.451Z,99.90
2018-08-04T06:17:51.057Z,99.90
2018-08-04T06:20:19.351Z,99.90
2018-08-04T06:22:47.534Z,99.90
2018-08-04T06:25:15.818Z,99.90
2018-08-04T06:27:44.076Z,99.90
2018-08-04T06:30:13.230Z,99.50
2018-08-04T06:32:42.277Z,99.20
2018-08-04T06:35:10.635Z,98.60
2018-08-04T06:37:38.935Z,97.90
2018-08-04T06:40:07.876Z,97.30
2018-08-04T06:42:36.080Z,96.90
2018-08-04T06:45:04.839Z,95.50
2018-08-04T06:47:33.066Z,94.40
2018-08-04T06:50:01.277Z,94.00
2018-08-04T06:52:29.648Z,93.00
2018-08-04T06:54:57.877Z,92.10
2018-08-04T06:57:26.135Z,90.40
2018-08-04T06:59:54.449Z,88.60
2018-08-04T07:02:22.710Z,86.80
2018-08-04T07:04:50.929Z,84.60
2018-08-04T07:07:19.191Z,83.50
2018-08-04T07:09:47.457Z,82.20
2018-08-04T07:12:15.955Z,81.20
2018-08-04T07:14:44.148Z,78.80
2018-08-04T07:17:12.375Z,77.00
2018-08-04T07:19:40.654Z,75.20
2018-08-04T07:22:08.896Z,75.60
2018-08-04T07:24:37.081Z,72.70
2018-08-04T07:27:05.382Z,72.10
2018-08-04T07:29:33.593Z,70.80
2018-08-04T07:32:01.848Z,67.40
2018-08-04T07:34:30.077Z,67.00
2018-08-04T07:36:58.343Z,64.20
2018-08-04T07:39:26.774Z,63.80
2018-08-04T07:41:55.036Z,62.10
2018-08-04T07:44:24.101Z,61.00
2018-08-04T07:46:52.320Z,60.70
2018-08-04T07:49:20.871Z,59.00
2018-08-04T07:51:49.855Z,58.00
2018-08-04T07:54:18.026Z,57.20
2018-08-04T07:56:46.213Z,56.50
2018-08-04T07:59:14.480Z,55.70
2018-08-04T08:01:42.796Z,54.90
2018-08-04T08:04:11.129Z,52.30
2018-08-04T08:06:39.616Z,52.40
2018-08-04T08:09:08.784Z,52.80
2018-08-04T08:11:37.165Z,52.30
2018-08-04T08:14:05.401Z,52.20
2018-08-04T08:16:33.630Z,52.60
2018-08-04T08:19:01.818Z,52.00
2018-08-04T08:21:29.995Z,51.40
2018-08-04T08:23:58.178Z,49.80
2018-08-04T08:26:26.375Z,49.90
2018-08-04T08:28:54.583Z,49.50
2018-08-04T08:31:23.670Z,48.70
2018-08-04T08:33:51.834Z,48.20
2018-08-04T08:36:20.031Z,48.20
2018-08-04T08:38:48.226Z,45.70
2018-08-04T08:41:16.468Z,45.70
2018-08-04T08:43:44.666Z,45.20
2018-08-04T08:48:41.091Z,44.70
2018-08-04T08:51:09.287Z,43.60
2018-08-04T08:53:37.542Z,43.10
2018-08-04T08:56:06.139Z,42.80
2018-08-04T08:58:34.336Z,43.50
2018-08-04T09:01:02.517Z,42.60
2018-08-04T09:03:30.691Z,43.00
2018-08-04T09:05:59.099Z,42.70
2018-08-04T09:08:27.347Z,42.50
2018-08-04T09:10:55.545Z,42.50
2018-08-04T09:13:23.756Z,41.70
2018-08-04T09:15:52.065Z,41.80
2018-08-04T09:18:20.383Z,41.90
2018-08-04T09:20:48.590Z,42.50
2018-08-04T09:23:16.847Z,42.10
2018-08-04T09:25:45.142Z,40.40
2018-08-04T09:28:13.355Z,40.30
2018-08-04T09:30:41.610Z,40.30
2018-08-04T09:33:09.844Z,39.80
2018-08-04T09:35:38.039Z,38.30
2018-08-04T09:38:06.234Z,38.20
2018-08-04T09:40:34.426Z,38.10
2018-08-04T09:43:02.619Z,38.50
2018-08-04T09:45:30.837Z,39.00
2018-08-04T09:47:59.067Z,38.20
2018-08-04T09:50:27.266Z,37.80
2018-08-04T09:52:55.594Z,38.00
2018-08-04T09:55:23.797Z,37.50
2018-08-04T10:00:25.384Z,36.80
2018-08-04T10:02:53.571Z,36.40
2018-08-04T10:05:21.774Z,37.00
2018-08-04T10:07:49.989Z,36.10
2018-08-04T10:12:45.457Z,35.20
2018-08-04T10:15:13.666Z,34.50
2018-08-04T10:17:41.853Z,35.10
2018-08-04T10:20:11.535Z,34.50
2018-08-04T10:22:39.723Z,31.50
2018-08-04T10:25:08.369Z,30.90
2018-08-04T10:27:36.555Z,30.80
2018-08-04T10:30:07.593Z,31.90
2018-08-04T10:32:35.994Z,33.00
2018-08-04T10:35:04.711Z,32.80
2018-08-04T10:37:32.903Z,33.00
2018-08-04T10:40:01.085Z,34.20
2018-08-04T10:42:29.294Z,34.50
2018-08-04T10:44:57.650Z,35.70
2018-08-04T10:47:25.971Z,36.60
2018-08-04T10:49:54.162Z,36.80
2018-08-04T10:52:22.342Z,37.20
2018-08-04T10:54:50.564Z,37.70
2018-08-04T10:57:18.790Z,37.50
2018-08-04T10:59:46.977Z,37.50
2018-08-04T11:02:15.204Z,38.00
2018-08-04T11:04:43.422Z,37.80
2018-08-04T11:07:11.611Z,36.90
2018-08-04T11:09:39.764Z,37.50
2018-08-04T11:12:08.256Z,38.30
2018-08-04T11:14:36.458Z,37.90
2018-08-04T11:17:04.638Z,37.60
2018-08-04T11:19:32.947Z,37.20
2018-08-04T11:22:01.125Z,36.70
2018-08-04T11:24:29.305Z,37.40
2018-08-04T11:26:57.467Z,37.60
2018-08-04T11:29:25.762Z,35.80
2018-08-04T11:31:53.970Z,36.80
2018-08-04T11:34:22.185Z,37.00
2018-08-04T11:36:51.194Z,36.80
2018-08-04T11:39:19.373Z,35.70
2018-08-04T11:41:47.619Z,35.40
2018-08-04T11:44:15.918Z,34.80
2018-08-04T11:46:44.188Z,33.80
2018-08-04T11:49:12.491Z,32.30
2018-08-04T11:51:40.999Z,31.20
2018-08-04T11:54:09.197Z,30.30
2018-08-04T11:56:37.387Z,30.00
2018-08-04T11:59:05.676Z,30.20
2018-08-04T12:01:33.948Z,29.40
2018-08-04T12:04:02.488Z,29.40
2018-08-04T12:06:30.665Z,28.90
2018-08-04T12:08:58.903Z,28.40
2018-08-04T12:11:27.371Z,29.00
2018-08-04T12:13:55.527Z,28.40
2018-08-04T12:16:23.715Z,27.90
2018-08-04T12:21:20.676Z,27.60
2018-08-04T12:26:16.799Z,27.40
2018-08-04T12:28:45.004Z,26.80
2018-08-04T12:31:13.266Z,27.50
2018-08-04T12:33:41.788Z,27.00
2018-08-04T12:36:09.994Z,27.70
2018-08-04T12:38:38.571Z,28.70
2018-08-04T12:41:06.811Z,29.30
2018-08-04T12:43:35.058Z,30.20
2018-08-04T12:46:03.613Z,30.20
2018-08-04T12:48:31.804Z,31.00
2018-08-04T12:51:01.458Z,31.70
2018-08-04T12:53:29.706Z,31.10
2018-08-04T12:55:58.779Z,31.80
2018-08-04T12:58:27.010Z,30.10
2018-08-04T13:00:55.345Z,29.50
2018-08-04T13:03:23.685Z,28.70
2018-08-04T13:05:52.173Z,28.60
2018-08-04T13:08:20.519Z,28.50
2018-08-04T13:10:49.782Z,27.30
2018-08-04T13:13:18.078Z,27.40
2018-08-04T13:15:46.282Z,27.20
2018-08-04T13:18:14.576Z,27.60
2018-08-04T13:20:42.751Z,27.00
2018-08-04T13:23:11.255Z,27.10
2018-08-04T13:25:39.736Z,28.80
2018-08-04T13:28:08.001Z,27.90
2018-08-04T13:30:36.207Z,27.50
2018-08-04T13:33:04.453Z,27.10
2018-08-04T13:35:32.811Z,27.00
2018-08-04T13:38:01.044Z,27.10
2018-08-04T13:40:29.283Z,26.40
2018-08-04T13:42:57.547Z,27.10
2018-08-04T13:45:25.746Z,26.70
2018-08-04T13:47:53.918Z,27.60
2018-08-04T13:50:23.076Z,26.90
2018-08-04T13:52:51.521Z,26.80
2018-08-04T13:55:19.858Z,25.30
2018-08-04T13:57:48.150Z,24.90
2018-08-04T14:00:16.440Z,24.70
2018-08-04T14:02:44.644Z,25.40
2018-08-04T14:05:12.840Z,26.30
2018-08-04T14:07:41.061Z,25.70
2018-08-04T14:10:09.252Z,25.00
2018-08-04T14:12:37.715Z,24.90
2018-08-04T14:17:34.092Z,24.80
2018-08-04T14:20:02.356Z,25.30
2018-08-04T14:22:30.539Z,25.50
2018-08-04T14:24:58.878Z,25.60
2018-08-04T14:27:27.046Z,25.60
2018-08-04T14:29:55.252Z,25.70
2018-08-04T14:32:23.416Z,25.80
2018-08-04T14:34:51.638Z,26.40
2018-08-04T14:37:19.762Z,26.60
2018-08-04T14:39:47.975Z,25.70
2018-08-04T14:42:16.991Z,25.70
2018-08-04T14:44:45.311Z,25.10
2018-08-04T14:47:13.478Z,25.80
2018-08-04T14:49:41.664Z,25.50
2018-08-04T14:52:10.029Z,26.20
2018-08-04T14:54:38.207Z,26.30
2018-08-04T14:57:06.647Z,25.90
2018-08-04T14:59:34.832Z,25.60
2018-08-04T15:02:03.169Z,25.40
2018-08-04T15:04:31.684Z,26.20
2018-08-04T15:06:59.818Z,25.90
2018-08-04T15:09:28.082Z,24.60
2018-08-04T15:11:56.351Z,24.70
2018-08-04T15:14:24.523Z,24.70
2018-08-04T15:16:52.803Z,24.80
2018-08-04T15:19:35.741Z,24.70
2018-08-04T15:22:10.088Z,25.60
2018-08-04T15:27:23.250Z,26.70
2018-08-04T15:29:51.446Z,27.80
2018-08-04T15:32:19.614Z,27.90
2018-08-04T15:34:47.835Z,28.20
2018-08-04T15:37:16.200Z,28.70
2018-08-04T15:42:12.431Z,29.20
2018-08-04T15:44:40.650Z,29.30
2018-08-04T15:47:08.840Z,28.80
2018-08-04T15:49:37.077Z,28.00
2018-08-04T15:52:05.262Z,27.30
2018-08-04T15:54:33.759Z,27.00
2018-08-04T15:57:01.942Z,27.00
2018-08-04T15:59:30.108Z,27.40
2018-08-04T16:01:58.560Z,27.60
2018-08-04T16:04:26.737Z,28.30
2018-08-04T16:06:55.017Z,29.00
2018-08-04T16:09:23.303Z,29.50
2018-08-04T16:11:51.549Z,30.00
2018-08-04T16:14:19.739Z,30.60
2018-08-04T16:16:47.950Z,30.60
2018-08-04T16:19:16.636Z,30.30
2018-08-04T16:24:13.243Z,29.40
2018-08-04T16:26:41.477Z,29.00
2018-08-04T16:29:09.799Z,28.90
2018-08-04T16:31:38.152Z,28.60
2018-08-04T16:34:06.407Z,28.30
2018-08-04T16:36:34.615Z,28.10
2018-08-04T16:39:02.851Z,28.00
2018-08-04T16:41:31.040Z,28.80
2018-08-04T16:43:59.322Z,28.30
2018-08-04T16:46:27.514Z,28.40
2018-08-04T16:48:55.739Z,28.80
2018-08-04T16:51:23.920Z,29.70
2018-08-04T16:53:52.088Z,29.90
2018-08-04T16:56:20.304Z,29.80
2018-08-04T16:58:48.553Z,30.70
2018-08-04T17:01:16.770Z,30.20
2018-08-04T17:03:45.128Z,31.20
2018-08-04T17:06:13.633Z,32.10
2018-08-04T17:08:42.095Z,32.90
2018-08-04T17:11:10.327Z,34.20
2018-08-04T17:13:38.621Z,33.90
2018-08-04T17:16:06.904Z,34.60
2018-08-04T17:18:35.208Z,35.30
2018-08-04T17:21:03.922Z,35.50
2018-08-04T17:23:33.297Z,36.20
2018-08-04T17:26:01.784Z,37.70
2018-08-04T17:28:29.979Z,37.50
2018-08-04T17:30:58.258Z,37.00
2018-08-04T17:33:26.957Z,37.50
2018-08-04T17:35:59.640Z,38.10
2018-08-04T17:38:29.433Z,40.30
2018-08-04T17:40:57.803Z,41.80
2018-08-04T17:43:26.354Z,41.10
2018-08-04T17:45:55.069Z,42.20
2018-08-04T17:48:24.243Z,42.90
2018-08-04T17:50:53.339Z,42.60
2018-08-04T17:53:22.163Z,44.00
2018-08-04T17:55:50.873Z,43.90
2018-08-04T17:58:19.129Z,44.60
2018-08-04T18:00:47.419Z,45.00
2018-08-04T18:03:15.771Z,45.80
2018-08-04T18:05:44.411Z,46.50
2018-08-04T18:08:13.395Z,46.40
2018-08-04T18:10:41.886Z,46.50
2018-08-04T18:13:10.532Z,46.90
2018-08-04T18:15:39.147Z,47.30
2018-08-04T18:18:08.497Z,47.60
2018-08-04T18:20:39.440Z,47.80
2018-08-04T18:23:07.929Z,48.10
2018-08-04T18:25:36.625Z,48.60
2018-08-04T18:28:05.690Z,48.80
2018-08-04T18:30:34.148Z,49.00
2018-08-04T18:33:02.938Z,49.60
2018-08-04T18:35:31.500Z,49.60
2018-08-04T18:38:01.102Z,49.90
2018-08-04T18:40:29.715Z,49.90
2018-08-04T18:42:58.191Z,50.40
2018-08-04T18:45:27.312Z,50.50
2018-08-04T18:47:55.711Z,50.60
2018-08-04T18:50:24.261Z,50.90
2018-08-04T18:52:52.945Z,51.10
2018-08-04T18:55:22.012Z,51.20
2018-08-04T18:57:50.509Z,51.50
2018-08-04T19:00:19.199Z,51.90
2018-08-04T19:02:47.980Z,52.60
2018-08-04T19:05:16.215Z,53.50
2018-08-04T19:10:14.604Z,53.60
2018-08-04T19:12:45.015Z,53.40
2018-08-04T19:15:14.846Z,53.40
2018-08-04T19:17:43.459Z,53.30
2018-08-04T19:20:11.727Z,53.60
2018-08-04T19:22:40.192Z,54.30
2018-08-04T19:25:09.196Z,54.80
2018-08-04T19:27:37.547Z,54.90
2018-08-04T19:30:07.273Z,55.40
2018-08-04T19:32:37.142Z,56.10
2018-08-04T19:35:05.831Z,55.90
2018-08-04T19:40:05.177Z,56.50
2018-08-04T19:42:33.659Z,56.80
2018-08-04T19:45:02.142Z,57.50
2018-08-04T19:47:30.452Z,58.10
2018-08-04T19:49:58.878Z,60.00
2018-08-04T19:52:27.135Z,60.50
2018-08-04T19:54:55.388Z,62.10
2018-08-04T19:57:23.931Z,62.40
2018-08-04T19:59:52.213Z,63.40
2018-08-04T20:02:20.438Z,64.50
2018-08-04T20:04:48.902Z,66.10
2018-08-04T20:07:17.387Z,66.40
2018-08-04T20:09:46.146Z,67.70
2018-08-04T20:12:14.875Z,68.30
2018-08-04T20:14:43.286Z,68.60
2018-08-04T20:17:11.812Z,70.30
2018-08-04T20:24:39.469Z,70.70
2018-08-04T20:27:07.906Z,70.10
2018-08-04T20:29:36.338Z,69.90
2018-08-04T20:32:04.759Z,69.90
2018-08-04T20:34:33.397Z,71.00
2018-08-04T20:37:02.195Z,71.30
2018-08-04T20:39:30.698Z,72.60
2018-08-04T20:41:59.329Z,74.90
2018-08-04T20:44:27.866Z,76.20
2018-08-04T20:46:56.375Z,76.60
2018-08-04T20:49:24.816Z,77.40
2018-08-04T20:51:53.663Z,79.20
2018-08-04T20:54:22.191Z,79.90
2018-08-04T20:56:50.804Z,80.50
2018-08-04T20:59:19.254Z,80.70
2018-08-04T21:01:50.041Z,82.10
2018-08-04T21:04:18.846Z,83.20
2018-08-04T21:06:47.782Z,84.80
2018-08-04T21:09:16.244Z,87.10
2018-08-04T21:11:49.805Z,88.40
2018-08-04T21:14:19.327Z,89.70
2018-08-04T21:16:48.153Z,90.10
2018-08-04T21:19:16.721Z,90.40
2018-08-04T21:21:45.263Z,91.00
2018-08-04T21:24:13.639Z,90.80
2018-08-04T21:26:42.517Z,91.20
2018-08-04T21:29:11.020Z,91.40
2018-08-04T21:34:07.597Z,92.50
2018-08-04T21:36:35.995Z,92.70
2018-08-04T21:39:06.573Z,92.30
2018-08-04T21:44:03.247Z,93.10
2018-08-04T21:46:31.611Z,93.40
2018-08-04T21:49:00.021Z,93.90
2018-08-04T21:51:28.478Z,94.20
2018-08-04T21:53:57.336Z,94.40
2018-08-04T21:56:25.759Z,94.70
2018-08-04T21:58:54.148Z,94.60
2018-08-04T22:01:22.684Z,94.40
2018-08-04T22:03:51.035Z,94.30
2018-08-04T22:06:19.682Z,94.30
2018-08-04T22:08:59.223Z,94.40
2018-08-04T22:11:27.646Z,94.50
2018-08-04T22:13:56.080Z,94.80
2018-08-04T22:16:24.527Z,95.10
2018-08-04T22:18:52.915Z,95.00
2018-08-04T22:21:21.437Z,95.40
2018-08-04T22:23:49.858Z,95.70
2018-08-04T22:26:18.288Z,95.70
2018-08-04T22:28:46.722Z,95.60
2018-08-04T22:31:15.167Z,95.90
2018-08-04T22:33:43.549Z,96.20
2018-08-04T22:36:12.031Z,96.80
2018-08-04T22:38:40.448Z,96.70
2018-08-04T22:41:08.924Z,96.70
2018-08-04T22:43:37.367Z,96.90
2018-08-04T22:46:12.912Z,97.10
2018-08-04T22:48:42.345Z,97.40
2018-08-04T22:51:10.794Z,97.50
2018-08-04T22:53:39.228Z,97.00
2018-08-04T22:56:07.629Z,97.00
2018-08-04T22:58:35.993Z,98.20
2018-08-04T23:01:04.418Z,99.10
2018-08-04T23:03:32.836Z,99.00
2018-08-04T23:06:01.228Z,98.80
2018-08-04T23:08:29.604Z,98.60
2018-08-04T23:10:57.996Z,98.60
2018-08-04T23:13:26.429Z,99.00
2018-08-04T23:15:54.923Z,99.00
2018-08-04T23:18:23.611Z,99.20
2018-08-04T23:20:52.009Z,99.30
2018-08-04T23:25:48.715Z,99.90
2018-08-04T23:28:17.102Z,99.90
2018-08-04T23:30:45.582Z,99.90
2018-08-04T23:33:14.011Z,99.90
2018-08-04T23:38:41.728Z,99.90
2018-08-04T23:41:10.155Z,99.90
2018-08-04T23:43:38.585Z,99.90
2018-08-04T23:46:06.993Z,99.90
2018-08-04T23:48:35.406Z,99.90
2018-08-04T23:51:03.806Z,99.90
2018-08-04T23:53:32.202Z,99.90
2018-08-04T23:56:00.634Z,99.90
2018-08-04T23:58:29.037Z,99.90
